Time;durP1;ratioP1;P1;durP2;ratioP2;P2;SDS_P1;SDS_P2;PMS_P1;PMS_P2;Temp;Humidity;BMP_temperature;BMP_pressure;BME280_temperature;BME280_humidity;BME280_pressure;Samples;Min_cycle;Max_cycle;Signal;HPM_P1;HPM_P2
2024/04/21 00:00:39;;;;;;;12.48;0.43;;;5.30;99.90;;;;;;5490944;26;20002;-77
2024/04/21 00:03:04;;;;;;;4.40;0.00;;;5.30;99.90;;;;;;5491429;26;20469;-78
2024/04/21 00:05:30;;;;;;;4.68;0.43;;;5.30;99.90;;;;;;5489670;26;20001;-77
2024/04/21 00:07:56;;;;;;;6.40;0.10;;;5.30;99.90;;;;;;5459762;26;19994;-77
2024/04/21 00:10:22;;;;;;;4.32;0.40;;;5.30;99.90;;;;;;5492320;26;20341;-77
2024/04/21 00:12:47;;;;;;;3.65;0.00;;;6.60;99.90;;;;;;5458743;26;19998;-77
2024/04/21 00:15:14;;;;;;;9.52;1.70;;;5.30;99.90;;;;;;5491416;26;20044;-77
2024/04/21 00:17:39;;;;;;;7.50;0.08;;;5.20;99.90;;;;;;5490709;26;20071;-77
2024/04/21 00:20:06;;;;;;;7.95;0.13;;;5.20;99.90;;;;;;5493111;26;20006;-77
2024/04/21 00:22:32;;;;;;;10.77;0.93;;;5.10;99.90;;;;;;5495551;26;20008;-77
2024/04/21 00:24:57;;;;;;;4.30;0.20;;;5.10;99.90;;;;;;5494597;26;19994;-77
2024/04/21 00:27:23;;;;;;;7.43;0.40;;;5.10;99.90;;;;;;5494843;26;19998;-77
2024/04/21 00:29:49;;;;;;;6.70;0.10;;;5.10;99.90;;;;;;5495286;26;20066;-77
2024/04/21 00:32:15;;;;;;;2.83;0.00;;;5.10;99.90;;;;;;5505911;26;20089;-77
2024/04/21 00:34:40;;;;;;;6.28;0.50;;;5.00;99.90;;;;;;5531887;26;20025;-77
2024/04/21 00:37:06;;;;;;;7.72;0.20;;;5.00;99.90;;;;;;5499032;26;20062;-77
2024/04/21 00:39:31;;;;;;;4.82;0.10;;;5.00;99.90;;;;;;5531288;26;19996;-77
2024/04/21 00:41:57;;;;;;;3.63;0.00;;;5.00;99.90;;;;;;5532242;26;20000;-77
2024/04/21 00:44:23;;;;;;;4.57;0.32;;;4.90;99.90;;;;;;5499379;26;20061;-77
2024/04/21 00:46:48;;;;;;;5.80;0.25;;;4.90;99.90;;;;;;5499112;26;20333;-77
2024/04/21 00:49:14;;;;;;;5.43;0.25;;;4.80;99.90;;;;;;5531591;26;20447;-77
2024/04/21 00:51:42;;;;;;;5.53;0.35;;;5.10;99.90;;;;;;5531377;26;19989;-77
2024/04/21 00:54:08;;;;;;;3.50;0.00;;;4.80;99.90;;;;;;5499355;26;19994;-77
2024/04/21 00:56:35;;;;;;;9.32;0.47;;;4.70;99.90;;;;;;5499247;26;20038;-78
2024/04/21 00:59:01;;;;;;;5.00;0.00;;;4.70;99.90;;;;;;5530538;26;20444;-77
2024/04/21 01:01:27;;;;;;;7.03;0.75;;;4.60;99.90;;;;;;5531597;26;20318;-77
2024/04/21 01:03:53;;;;;;;6.18;0.10;;;4.60;99.90;;;;;;5498909;26;19985;-77
2024/04/21 01:06:19;;;;;;;3.95;0.00;;;4.60;99.90;;;;;;5532065;26;20328;-77
2024/04/21 01:08:45;;;;;;;3.92;0.10;;;4.50;99.90;;;;;;5531551;26;19993;-77
2024/04/21 01:11:22;;;;;;;4.15;0.30;;;4.50;99.90;;;;;;5531183;26;20001;-77
2024/04/21 01:13:48;;;;;;;7.28;0.52;;;4.40;99.90;;;;;;5497731;26;19997;-77
2024/04/21 01:16:14;;;;;;;9.38;0.00;;;4.50;99.90;;;;;;5531902;26;19998;-77
2024/04/21 01:18:40;;;;;;;5.95;0.45;;;4.50;99.90;;;;;;5498743;26;20459;-77
2024/04/21 01:21:06;;;;;;;5.85;0.63;;;4.50;99.90;;;;;;5531317;26;20356;-77
2024/04/21 01:23:31;;;;;;;6.65;0.00;;;4.50;99.90;;;;;;5498692;26;20046;-77
2024/04/21 01:25:57;;;;;;;6.38;0.13;;;4.60;99.90;;;;;;5498776;26;20004;-77
2024/04/21 01:28:23;;;;;;;5.38;0.32;;;4.60;99.90;;;;;;5531078;26;20069;-77
2024/04/21 01:30:48;;;;;;;8.90;0.20;;;4.60;99.90;;;;;;5498070;26;19997;-77
2024/04/21 01:33:14;;;;;;;1.77;0.08;;;4.60;99.90;;;;;;5497494;26;20324;-77
2024/04/21 01:35:41;;;;;;;3.42;0.10;;;4.60;99.90;;;;;;5497922;26;20005;-77
2024/04/21 01:38:11;;;;;;;5.93;0.30;;;4.60;99.90;;;;;;5498367;26;20000;-77
2024/04/21 01:40:36;;;;;;;7.72;0.20;;;4.60;99.90;;;;;;5530571;26;20440;-77
2024/04/21 01:43:02;;;;;;;5.90;0.00;;;4.60;99.90;;;;;;5531052;26;20004;-77
2024/04/21 01:45:28;;;;;;;4.47;0.30;;;4.50;99.90;;;;;;5497015;26;20004;-77
2024/04/21 01:47:53;;;;;;;3.33;0.00;;;4.50;99.90;;;;;;5493660;26;19994;-77
2024/04/21 01:50:19;;;;;;;5.70;0.32;;;4.50;99.90;;;;;;5461445;26;19994;-77
2024/04/21 01:52:44;;;;;;;6.50;0.30;;;4.50;99.90;;;;;;5461930;26;20016;-77
2024/04/21 01:55:10;;;;;;;6.47;0.90;;;4.40;99.90;;;;;;5493791;26;20339;-77
2024/04/21 01:57:38;;;;;;;6.43;0.30;;;4.30;99.90;;;;;;5494699;26;19998;-77
2024/04/21 02:00:05;;;;;;;4.20;0.30;;;4.30;99.90;;;;;;5456849;26;19994;-77
2024/04/21 02:02:32;;;;;;;3.00;0.00;;;4.20;99.90;;;;;;5458033;26;20005;-77
2024/04/21 02:04:59;;;;;;;4.65;0.20;;;4.20;99.90;;;;;;5457053;26;19998;-77
2024/04/21 02:07:25;;;;;;;3.20;0.43;;;4.10;99.90;;;;;;5457390;26;20018;-77
2024/04/21 02:09:51;;;;;;;7.68;0.55;;;4.10;99.90;;;;;;5457016;26;20155;-77
2024/04/21 02:12:18;;;;;;;3.85;0.08;;;4.00;99.90;;;;;;5456993;26;20039;-77
2024/04/21 02:14:43;;;;;;;3.55;0.00;;;4.00;99.90;;;;;;5457101;26;20450;-77
2024/04/21 02:17:09;;;;;;;4.53;0.10;;;3.90;99.90;;;;;;5425188;26;20002;-77
2024/04/21 02:19:35;;;;;;;7.95;0.52;;;3.90;99.90;;;;;;5425690;26;20434;-77
2024/04/21 02:22:00;;;;;;;3.38;0.80;;;3.90;99.90;;;;;;5456864;26;19998;-77
2024/04/21 02:24:26;;;;;;;3.20;0.10;;;3.90;99.90;;;;;;5457428;26;20005;-77
2024/04/21 02:26:52;;;;;;;7.72;0.10;;;3.90;99.90;;;;;;5424555;26;20064;-77
2024/04/21 02:29:18;;;;;;;8.73;0.45;;;3.90;99.90;;;;;;5454862;26;20002;-77
2024/04/21 02:31:43;;;;;;;5.18;0.35;;;4.00;99.90;;;;;;5425230;26;20009;-77
2024/04/21 02:34:09;;;;;;;8.25;0.22;;;4.00;99.90;;;;;;5425345;26;19994;-77
2024/04/21 02:36:36;;;;;;;2.63;0.10;;;4.10;99.90;;;;;;5457064;26;20006;-77
2024/04/21 02:39:01;;;;;;;8.10;0.68;;;4.10;99.90;;;;;;5424846;26;20071;-77
2024/04/21 02:41:27;;;;;;;5.38;0.55;;;4.20;99.90;;;;;;5456828;26;20011;-77
2024/04/21 02:43:52;;;;;;;6.97;0.00;;;4.30;99.90;;;;;;5424298;26;20005;-77
2024/04/21 02:46:20;;;;;;;5.93;0.52;;;4.40;99.90;;;;;;5456442;26;20438;-77
2024/04/21 02:48:46;;;;;;;4.72;0.75;;;4.40;99.90;;;;;;5456053;26;20483;-77
2024/04/21 02:51:11;;;;;;;9.82;0.25;;;4.60;99.90;;;;;;5425501;26;20068;-77
2024/04/21 02:53:37;;;;;;;5.90;0.50;;;4.60;99.90;;;;;;5426430;26;20473;-77
2024/04/21 02:56:06;;;;;;;4.78;0.35;;;4.80;99.90;;;;;;5458456;26;20009;-77
2024/04/21 02:58:32;;;;;;;;;;;4.90;99.90;;;;;;5457354;26;20339;-77
2024/04/21 03:00:57;;;;;;;3.92;0.00;;;4.90;99.90;;;;;;5425691;26;19932;-76
2024/04/21 03:03:23;;;;;;;4.93;0.25;;;4.80;99.90;;;;;;5455997;26;20001;-77
2024/04/21 03:05:56;;;;;;;1.92;0.00;;;4.60;99.90;;;;;;5425047;26;20518;-77
2024/04/21 03:08:21;;;;;;;2.45;0.10;;;4.60;99.90;;;;;;5456798;26;19994;-77
2024/04/21 03:10:47;;;;;;;2.22;0.20;;;4.40;99.90;;;;;;5425685;26;20006;-77
2024/04/21 03:13:12;;;;;;;3.08;0.70;;;4.30;99.90;;;;;;5425650;26;20010;-77
2024/04/21 03:15:38;;;;;;;3.83;0.00;;;4.30;99.90;;;;;;5425695;26;19995;-77
2024/04/21 03:18:04;;;;;;;1.98;0.00;;;4.20;99.90;;;;;;5451721;26;20062;-77
2024/04/21 03:20:30;;;;;;;1.08;0.00;;;4.20;99.90;;;;;;5493138;26;19997;-77
2024/04/21 03:22:55;;;;;;;3.03;0.10;;;4.60;99.90;;;;;;5521796;26;19994;-77
2024/04/21 03:25:21;;;;;;;5.80;0.00;;;4.10;99.90;;;;;;5494179;26;20002;-76
2024/04/21 03:27:47;;;;;;;2.30;0.00;;;4.10;99.90;;;;;;5492628;26;20447;-77
2024/04/21 03:30:12;;;;;;;2.72;0.00;;;4.10;99.90;;;;;;5461963;26;20557;-76
2024/04/21 03:32:38;;;;;;;2.10;0.10;;;4.00;99.90;;;;;;5493942;26;19994;-77
2024/04/21 03:35:05;;;;;;;0.20;0.00;;;4.00;99.90;;;;;;5493669;26;19994;-77
2024/04/21 03:37:31;;;;;;;3.72;0.20;;;4.00;99.90;;;;;;5461527;26;20010;-77
2024/04/21 03:39:59;;;;;;;2.60;0.00;;;3.90;99.90;;;;;;5494788;26;20442;-77
2024/04/21 03:42:25;;;;;;;3.10;0.00;;;3.90;99.90;;;;;;5494397;26;19995;-77
2024/04/21 03:44:51;;;;;;;2.75;0.00;;;3.90;99.90;;;;;;5461123;26;20063;-77
2024/04/21 03:47:19;;;;;;;1.33;0.00;;;3.90;99.90;;;;;;5492987;26;19990;-77
2024/04/21 03:49:46;;;;;;;0.75;0.10;;;3.80;99.90;;;;;;5462236;26;19990;-77
2024/04/21 03:52:12;;;;;;;1.10;0.08;;;3.70;99.90;;;;;;5461784;26;19997;-77
2024/04/21 03:54:37;;;;;;;3.70;0.00;;;3.70;99.90;;;;;;5462316;26;20391;-77
2024/04/21 03:57:05;;;;;;;3.50;0.00;;;3.70;99.90;;;;;;5465281;26;19991;-77
2024/04/21 03:59:31;;;;;;;3.17;0.00;;;3.70;99.90;;;;;;5498025;26;19993;-77
2024/04/21 04:01:57;;;;;;;3.00;0.30;;;3.70;99.90;;;;;;5497246;26;19995;-77
2024/04/21 04:04:22;;;;;;;3.58;0.00;;;3.60;99.90;;;;;;5496350;26;19990;-77
2024/04/21 04:06:48;;;;;;;4.13;0.30;;;3.60;99.90;;;;;;5464570;26;20001;-77
2024/04/21 04:09:14;;;;;;;4.88;0.00;;;3.60;99.90;;;;;;5497450;26;19994;-77
2024/04/21 04:11:39;;;;;;;4.22;0.00;;;3.60;99.90;;;;;;5497671;26;19994;-77
2024/04/21 04:14:05;;;;;;;2.92;0.00;;;3.60;99.90;;;;;;5497775;26;20002;-77
2024/04/21 04:16:31;;;;;;;9.30;0.28;;;3.60;99.90;;;;;;5463888;26;20028;-77
2024/04/21 04:18:56;;;;;;;7.80;0.47;;;3.50;99.90;;;;;;5525280;26;20013;-77
2024/04/21 04:21:22;;;;;;;9.73;0.70;;;3.50;99.90;;;;;;5532945;26;19997;-77
2024/04/21 04:23:48;;;;;;;9.02;0.00;;;4.30;99.90;;;;;;5499641;26;20004;-78
2024/04/21 04:26:13;;;;;;;5.05;0.73;;;3.40;99.90;;;;;;5500855;26;20001;-77
2024/04/21 04:28:39;;;;;;;4.20;0.00;;;4.80;99.90;;;;;;5532674;26;20003;-76
2024/04/21 04:31:07;;;;;;;1.80;0.10;;;3.50;99.90;;;;;;5502156;26;19985;-77
2024/04/21 04:33:35;;;;;;;2.85;0.00;;;3.50;99.90;;;;;;5501717;26;20066;-77
2024/04/21 04:36:01;;;;;;;2.72;0.00;;;3.70;99.90;;;;;;5500744;26;19989;-77
2024/04/21 04:38:28;;;;;;;6.10;0.10;;;3.80;99.90;;;;;;5532050;26;19993;-77
2024/04/21 04:40:56;;;;;;;6.85;0.10;;;3.80;99.90;;;;;;5499562;26;20380;-77
2024/04/21 04:43:22;;;;;;;5.07;0.22;;;3.80;99.90;;;;;;5501018;26;19985;-77
2024/04/21 04:45:50;;;;;;;3.22;0.00;;;4.00;99.90;;;;;;5500571;26;20012;-77
2024/04/21 04:48:15;;;;;;;1.25;0.00;;;3.90;99.90;;;;;;5500373;26;20001;-77
2024/04/21 04:50:41;;;;;;;3.80;0.00;;;4.00;99.90;;;;;;5532824;26;20318;-77
2024/04/21 04:53:06;;;;;;;2.47;0.03;;;4.00;99.90;;;;;;5499820;26;20021;-76
2024/04/21 04:55:32;;;;;;;4.15;0.10;;;4.20;99.90;;;;;;5532618;26;20045;-77
2024/04/21 04:57:58;;;;;;;1.95;0.00;;;4.20;99.90;;;;;;5516938;26;20038;-77
2024/04/21 05:00:27;;;;;;;0.93;0.00;;;5.00;99.90;;;;;;5462189;26;20437;-77
2024/04/21 05:02:54;;;;;;;2.15;0.00;;;4.30;99.90;;;;;;5461659;26;20020;-77
2024/04/21 05:05:19;;;;;;;1.05;0.00;;;4.30;99.90;;;;;;5494822;26;20379;-77
2024/04/21 05:07:45;;;;;;;1.45;0.00;;;4.30;99.90;;;;;;5462786;26;19990;-77
2024/04/21 05:10:13;;;;;;;3.30;0.38;;;4.30;99.90;;;;;;5495507;26;20065;-77
2024/04/21 05:12:39;;;;;;;2.20;0.60;;;4.40;99.90;;;;;;5509054;26;20001;-76
2024/04/21 05:15:05;;;;;;;1.52;0.00;;;4.40;99.90;;;;;;5499237;26;20038;-77
2024/04/21 05:17:31;;;;;;;2.42;0.00;;;4.40;99.90;;;;;;5499215;26;19993;-77
2024/04/21 05:19:56;;;;;;;1.83;0.00;;;4.30;99.90;;;;;;5530601;26;19993;-77
2024/04/21 05:22:22;;;;;;;1.95;0.00;;;4.90;99.90;;;;;;5530859;26;20009;-77
2024/04/21 05:24:47;;;;;;;1.60;0.00;;;4.30;99.90;;;;;;5499441;26;20000;-77
2024/04/21 05:27:13;;;;;;;1.20;0.00;;;4.30;99.90;;;;;;5470086;26;19994;-77
2024/04/21 05:29:39;;;;;;;0.55;0.00;;;4.20;99.90;;;;;;5494987;26;20410;-77
2024/04/21 05:32:08;;;;;;;1.00;0.00;;;4.20;99.90;;;;;;5463149;26;19997;-77
2024/04/21 05:34:36;;;;;;;2.03;0.05;;;4.20;99.90;;;;;;5462758;26;20004;-77
2024/04/21 05:37:02;;;;;;;0.00;0.00;;;4.20;99.90;;;;;;5462575;26;20465;-77
2024/04/21 05:39:27;;;;;;;0.00;0.00;;;4.20;99.90;;;;;;5461769;26;20066;-77
2024/04/21 05:41:53;;;;;;;1.30;0.40;;;4.20;99.90;;;;;;5522348;26;19997;-76
2024/04/21 05:44:19;;;;;;;0.10;0.00;;;4.20;99.90;;;;;;5499378;26;20471;-76
2024/04/21 05:46:44;;;;;;;4.03;0.00;;;4.20;99.90;;;;;;5531984;26;19997;-76
2024/04/21 05:49:10;;;;;;;0.90;0.00;;;4.30;99.90;;;;;;5532024;26;20008;-76
2024/04/21 05:51:35;;;;;;;0.10;0.00;;;4.30;99.90;;;;;;5532226;26;20005;-76
2024/04/21 05:54:01;;;;;;;0.17;0.00;;;4.30;99.90;;;;;;5525479;26;19998;-77
2024/04/21 05:56:28;;;;;;;0.35;0.00;;;4.90;99.90;;;;;;5463356;26;20009;-77
2024/04/21 05:58:54;;;;;;;2.53;0.20;;;4.30;99.90;;;;;;5494634;26;20020;-77
2024/04/21 06:01:20;;;;;;;0.10;0.00;;;4.30;99.90;;;;;;5461986;26;19998;-77
2024/04/21 06:03:45;;;;;;;1.35;0.00;;;4.40;99.90;;;;;;5496057;26;20353;-76
2024/04/21 06:06:13;;;;;;;3.30;0.00;;;5.00;99.90;;;;;;5494415;26;19998;-76
2024/04/21 06:08:41;;;;;;;0.08;0.00;;;4.40;99.90;;;;;;5461685;26;20005;-76
2024/04/21 06:11:07;;;;;;;1.90;0.00;;;4.40;99.90;;;;;;5462329;26;20453;-76
2024/04/21 06:13:33;;;;;;;1.70;0.00;;;4.40;99.90;;;;;;5493624;26;20008;-76
2024/04/21 06:15:58;;;;;;;0.08;0.00;;;4.50;99.90;;;;;;5462212;26;20065;-76
2024/04/21 06:18:24;;;;;;;0.75;0.00;;;4.50;99.90;;;;;;5459686;26;20318;-76
2024/04/21 06:20:51;;;;;;;0.75;0.00;;;4.50;99.90;;;;;;5493196;26;20006;-76
2024/04/21 06:23:17;;;;;;;0.55;0.00;;;4.60;99.90;;;;;;5493458;26;19994;-76
2024/04/21 06:25:42;;;;;;;1.65;0.00;;;4.50;99.90;;;;;;5461997;26;19994;-76
2024/04/21 06:28:08;;;;;;;0.28;0.00;;;4.60;99.90;;;;;;5461196;26;20026;-76
2024/04/21 06:30:34;;;;;;;1.08;0.00;;;4.70;99.90;;;;;;5493859;26;19994;-77
2024/04/21 06:32:59;;;;;;;2.78;0.00;;;4.70;99.90;;;;;;5461601;26;19990;-77
2024/04/21 06:35:25;;;;;;;0.45;0.00;;;4.80;99.90;;;;;;5494225;26;19998;-77
2024/04/21 06:37:50;;;;;;;0.70;0.00;;;4.80;99.90;;;;;;5492238;26;20449;-77
2024/04/21 06:40:17;;;;;;;1.55;0.00;;;5.00;99.90;;;;;;5492605;26;20005;-77
2024/04/21 06:42:43;;;;;;;2.65;0.10;;;5.10;99.90;;;;;;5461161;26;19994;-77
2024/04/21 06:45:08;;;;;;;1.23;0.17;;;5.20;99.90;;;;;;5493066;26;20004;-77
2024/04/21 06:47:37;;;;;;;0.37;0.00;;;5.30;99.90;;;;;;5415418;26;2035238;-77
2024/04/21 06:50:03;;;;;;;0.55;0.00;;;5.30;99.90;;;;;;5462231;26;19998;-77
2024/04/21 06:52:30;;;;;;;2.55;0.00;;;5.30;99.90;;;;;;5461529;26;20009;-77
2024/04/21 06:54:55;;;;;;;2.75;0.30;;;5.30;99.90;;;;;;5461167;26;20004;-77
2024/04/21 06:57:21;;;;;;;0.93;0.00;;;5.40;99.90;;;;;;5459951;26;20328;-77
2024/04/21 06:59:46;;;;;;;2.42;0.00;;;5.40;99.90;;;;;;5460831;26;20464;-75
2024/04/21 07:02:12;;;;;;;2.05;0.10;;;5.50;99.90;;;;;;5461913;26;19994;-76
2024/04/21 07:04:38;;;;;;;1.58;0.00;;;5.50;99.90;;;;;;5493234;26;20403;-76
2024/04/21 07:07:04;;;;;;;3.65;0.22;;;5.70;99.90;;;;;;5492427;26;19994;-76
2024/04/21 07:09:32;;;;;;;3.83;0.20;;;5.70;99.90;;;;;;5492522;26;20013;-75
2024/04/21 07:11:58;;;;;;;1.38;0.00;;;5.80;99.90;;;;;;5459315;26;20025;-75
2024/04/21 07:14:23;;;;;;;3.55;0.05;;;5.80;99.90;;;;;;5459132;26;19994;-76
2024/04/21 07:16:49;;;;;;;4.72;0.20;;;6.00;99.90;;;;;;5459194;26;19994;-76
2024/04/21 07:19:14;;;;;;;1.17;0.43;;;6.10;99.90;;;;;;5459427;26;20337;-76
2024/04/21 07:21:40;;;;;;;1.73;0.20;;;6.10;99.90;;;;;;5458877;26;20001;-76
2024/04/21 07:24:06;;;;;;;6.43;0.63;;;6.20;99.90;;;;;;5491547;26;20006;-76
2024/04/21 07:26:32;;;;;;;2.65;0.20;;;6.30;99.90;;;;;;5460589;26;20463;-76
2024/04/21 07:28:58;;;;;;;7.13;0.08;;;6.40;99.90;;;;;;5460981;26;20002;-78
2024/04/21 07:31:23;;;;;;;1.17;0.20;;;6.40;99.90;;;;;;5463347;26;19998;-78
2024/04/21 07:33:49;;;;;;;2.38;0.10;;;6.60;99.90;;;;;;5495724;26;20037;-78
2024/04/21 07:36:15;;;;;;;4.05;0.32;;;6.60;99.90;;;;;;5463063;26;20067;-77
2024/04/21 07:38:40;;;;;;;4.65;0.57;;;6.70;99.90;;;;;;5494833;26;20371;-78
2024/04/21 07:41:06;;;;;;;4.28;0.80;;;6.80;99.90;;;;;;5463005;26;19990;-78
2024/04/21 07:43:33;;;;;;;1.08;0.20;;;7.20;99.90;;;;;;5463220;26;20314;-78
2024/04/21 07:45:58;;;;;;;2.17;0.38;;;6.90;99.90;;;;;;5462341;26;20181;-77
2024/04/21 07:48:26;;;;;;;3.25;0.10;;;7.10;99.90;;;;;;5493939;26;20009;-79
2024/04/21 07:50:51;;;;;;;5.00;0.00;;;7.20;99.90;;;;;;5494379;26;19998;-78
2024/04/21 07:53:17;;;;;;;2.30;0.03;;;7.30;99.90;;;;;;5494213;26;20006;-78
2024/04/21 07:55:43;;;;;;;1.30;0.00;;;7.50;99.90;;;;;;5462636;26;19990;-77
2024/04/21 07:58:09;;;;;;;1.60;0.38;;;7.40;99.90;;;;;;5461959;26;19994;-77
2024/04/21 08:00:38;;;;;;;5.55;0.22;;;7.60;99.90;;;;;;5462397;26;20063;-78
2024/04/21 08:03:04;;;;;;;2.60;0.10;;;7.70;99.90;;;;;;5494705;26;20030;-78
2024/04/21 08:05:30;;;;;;;3.80;0.10;;;7.70;99.90;;;;;;5494205;26;20449;-77
2024/04/21 08:07:55;;;;;;;1.80;0.00;;;7.70;99.90;;;;;;5494204;26;19998;-78
2024/04/21 08:10:21;;;;;;;5.43;0.45;;;7.50;99.90;;;;;;5461548;26;19990;-78
2024/04/21 08:12:46;;;;;;;1.80;0.00;;;8.40;99.90;;;;;;5493795;26;19994;-78
2024/04/21 08:15:12;;;;;;;1.77;0.05;;;7.70;99.90;;;;;;5462149;26;20008;-77
2024/04/21 08:17:38;;;;;;;2.67;0.10;;;7.90;99.90;;;;;;5463046;26;20040;-77
2024/04/21 08:20:04;;;;;;;5.05;0.32;;;7.80;99.90;;;;;;5462093;26;20448;-77
2024/04/21 08:22:30;;;;;;;6.28;0.40;;;7.80;99.90;;;;;;5494698;26;20006;-80
2024/04/21 08:24:55;;;;;;;2.78;0.10;;;7.80;99.90;;;;;;5495174;26;19998;-77
2024/04/21 08:27:23;;;;;;;4.85;0.10;;;7.90;99.90;;;;;;5494192;26;20006;-78
2024/04/21 08:29:49;;;;;;;3.13;0.15;;;8.10;99.90;;;;;;5461320;26;20369;-77
2024/04/21 08:32:14;;;;;;;4.65;0.30;;;8.30;99.90;;;;;;5462280;26;20001;-77
2024/04/21 08:34:40;;;;;;;5.78;0.20;;;8.60;99.90;;;;;;5493879;26;20026;-77
2024/04/21 08:37:07;;;;;;;4.68;0.57;;;9.60;99.90;;;;;;5493609;26;19994;-77
2024/04/21 08:39:33;;;;;;;3.53;0.20;;;8.70;99.90;;;;;;5493480;26;20009;-75
2024/04/21 08:41:59;;;;;;;12.20;1.15;;;8.50;99.90;;;;;;5492538;26;20414;-77
2024/04/21 08:44:29;;;;;;;2.05;0.30;;;8.50;99.90;;;;;;5461772;26;20005;-78
2024/04/21 08:46:55;;;;;;;5.32;0.00;;;8.70;99.90;;;;;;5494056;26;20025;-78
2024/04/21 08:49:22;;;;;;;3.25;0.00;;;8.90;99.90;;;;;;5461347;26;20004;-78
2024/04/21 08:51:49;;;;;;;6.20;0.20;;;9.00;99.90;;;;;;5461090;26;20391;-78
2024/04/21 08:54:16;;;;;;;5.10;0.00;;;9.30;99.90;;;;;;5461148;26;20000;-79
2024/04/21 08:56:50;;;;;;;8.13;0.40;;;9.50;99.90;;;;;;5493603;26;19998;-78
2024/04/21 08:59:17;;;;;;;7.50;0.20;;;9.80;99.90;;;;;;5461502;26;19994;-77
2024/04/21 09:01:43;;;;;;;5.75;0.10;;;10.10;99.90;;;;;;5460874;26;20026;-78
2024/04/21 09:04:09;;;;;;;4.13;0.10;;;10.40;99.90;;;;;;5493227;26;20013;-78
2024/04/21 09:06:38;;;;;;;9.02;1.17;;;10.80;99.90;;;;;;5492915;26;20002;-78
2024/04/21 09:09:04;;;;;;;3.22;0.10;;;10.70;99.90;;;;;;5492996;26;19998;-78
2024/04/21 09:11:30;;;;;;;2.83;0.10;;;10.40;99.90;;;;;;5460648;26;20458;-78
2024/04/21 09:13:56;;;;;;;3.38;0.00;;;10.40;99.90;;;;;;5460862;26;19994;-78
2024/04/21 09:16:24;;;;;;;2.53;0.22;;;10.10;99.90;;;;;;5460252;26;19998;-77
2024/04/21 09:18:50;;;;;;;1.95;0.08;;;10.00;99.90;;;;;;5493220;26;20010;-77
2024/04/21 09:21:15;;;;;;;4.60;0.17;;;9.80;99.90;;;;;;5460660;26;20395;-77
2024/04/21 09:23:42;;;;;;;5.35;0.00;;;;;;;;;;5461025;26;20001;-77
2024/04/21 09:26:08;;;;;;;1.80;0.65;;;9.20;99.90;;;;;;5493195;26;20041;-77
2024/04/21 09:28:34;;;;;;;1.70;0.15;;;10.10;99.90;;;;;;5460731;26;19998;-78
2024/04/21 09:31:00;;;;;;;2.15;0.30;;;9.20;99.90;;;;;;5492889;26;19994;-77
2024/04/21 09:33:28;;;;;;;5.38;0.00;;;9.90;99.90;;;;;;5460804;26;19998;-77
2024/04/21 09:35:58;;;;;;;1.50;0.15;;;9.10;99.90;;;;;;5492638;26;20022;-78
2024/04/21 09:38:23;;;;;;;2.17;0.00;;;9.00;99.90;;;;;;5492639;26;20006;-77
2024/04/21 09:40:53;;;;;;;1.25;0.00;;;9.00;99.90;;;;;;5459998;26;20066;-77
2024/04/21 09:43:21;;;;;;;1.52;0.00;;;9.30;99.90;;;;;;5460203;26;19997;-78
2024/04/21 09:45:48;;;;;;;3.88;0.10;;;9.60;99.90;;;;;;5459627;26;19994;-78
2024/04/21 09:48:15;;;;;;;3.63;0.00;;;9.80;99.90;;;;;;5491754;26;20060;-78
2024/04/21 09:50:43;;;;;;;2.00;0.28;;;10.70;99.90;;;;;;5459689;26;20326;-78
2024/04/21 09:53:11;;;;;;;2.38;0.38;;;10.60;99.90;;;;;;5458573;26;20001;-77
2024/04/21 09:55:39;;;;;;;5.17;0.30;;;11.20;99.90;;;;;;5492010;26;19998;-77
2024/04/21 09:58:10;;;;;;;3.22;0.20;;;11.80;99.90;;;;;;5492253;26;20263;-77
2024/04/21 10:00:41;;;;;;;2.80;0.00;;;12.00;99.90;;;;;;5459638;26;19997;-75
2024/04/21 10:03:09;;;;;;;2.28;0.00;;;12.20;99.90;;;;;;5491456;26;20005;-78
2024/04/21 10:05:36;;;;;;;1.55;0.00;;;12.10;99.90;;;;;;5459551;26;20031;-75
2024/04/21 10:08:04;;;;;;;0.80;0.00;;;12.10;99.90;;;;;;5490802;26;20406;-75
2024/04/21 10:10:35;;;;;;;1.52;0.40;;;12.00;99.90;;;;;;5459102;26;19995;-79
2024/04/21 10:13:01;;;;;;;5.07;0.00;;;12.00;99.90;;;;;;5459549;26;19994;-77
2024/04/21 10:15:28;;;;;;;4.28;0.32;;;11.70;99.90;;;;;;5459763;26;20038;-77
2024/04/21 10:17:54;;;;;;;1.08;0.03;;;11.70;99.90;;;;;;5459448;26;20002;-78
2024/04/21 10:20:37;;;;;;;4.85;0.00;;;11.70;99.90;;;;;;5459808;26;19994;-78
2024/04/21 10:23:11;;;;;;;6.07;0.13;;;11.60;99.90;;;;;;5492055;26;20070;-77
2024/04/21 10:25:43;;;;;;;0.93;0.00;;;11.40;99.90;;;;;;5459760;26;20321;-77
2024/04/21 10:28:14;;;;;;;1.65;0.00;;;11.40;99.90;;;;;;5490905;26;19994;-76
2024/04/21 10:30:40;;;;;;;0.88;0.03;;;11.50;99.90;;;;;;5458885;26;20129;-76
2024/04/21 10:33:10;;;;;;;0.95;0.00;;;11.70;99.90;;;;;;5490927;26;20002;-76
2024/04/21 10:35:40;;;;;;;0.65;0.00;;;12.00;99.90;;;;;;5490725;26;20018;-76
2024/04/21 10:38:07;;;;;;;2.25;0.00;;;12.10;99.90;;;;;;5490964;26;20485;-76
2024/04/21 10:40:39;;;;;;;0.15;0.00;;;12.20;99.90;;;;;;5458267;26;19994;-76
2024/04/21 10:43:05;;;;;;;1.20;0.10;;;11.90;99.90;;;;;;5490788;26;20453;-75
2024/04/21 10:45:32;;;;;;;1.60;0.00;;;11.90;99.90;;;;;;5458539;26;20005;-75
2024/04/21 10:47:59;;;;;;;0.65;0.08;;;11.80;99.90;;;;;;5457888;26;19998;-75
2024/04/21 10:50:25;;;;;;;0.70;0.00;;;11.80;99.90;;;;;;5490563;26;20082;-75
2024/04/21 10:52:51;;;;;;;1.35;0.00;;;12.00;99.90;;;;;;5457970;26;20006;-76
2024/04/21 10:55:19;;;;;;;1.55;0.00;;;12.40;99.90;;;;;;5458282;26;20465;-75
2024/04/21 10:57:45;;;;;;;9.30;0.88;;;12.30;99.90;;;;;;5457842;26;20506;-75
2024/04/21 11:00:11;;;;;;;1.30;0.00;;;12.30;99.90;;;;;;5458238;26;19998;-77
2024/04/21 11:02:37;;;;;;;0.55;0.00;;;12.10;99.90;;;;;;5458150;26;20013;-76
2024/04/21 11:05:05;;;;;;;0.60;0.10;;;12.10;99.90;;;;;;5489831;26;20005;-75
2024/04/21 11:07:32;;;;;;;1.70;0.00;;;12.30;99.90;;;;;;5457669;26;20037;-76
2024/04/21 11:09:58;;;;;;;0.85;0.00;;;12.60;99.90;;;;;;5490041;26;20066;-76
2024/04/21 11:12:24;;;;;;;1.52;0.00;;;12.80;99.90;;;;;;5457836;26;19998;-76
2024/04/21 11:14:57;;;;;;;1.17;0.00;;;12.80;99.90;;;;;;5490252;26;20005;-76
2024/04/21 11:17:23;;;;;;;0.35;0.00;;;12.50;99.90;;;;;;5457886;26;20333;-77
2024/04/21 11:19:49;;;;;;;1.27;0.10;;;12.50;99.90;;;;;;5490436;26;20383;-76
2024/04/21 11:22:20;;;;;;;0.57;0.00;;;12.50;99.90;;;;;;5489942;26;20345;-76
2024/04/21 11:24:46;;;;;;;0.40;0.00;;;12.50;99.90;;;;;;5457556;26;19994;-76
2024/04/21 11:27:12;;;;;;;2.90;0.05;;;12.80;99.90;;;;;;5457575;26;19994;-76
2024/04/21 11:29:41;;;;;;;0.32;0.00;;;12.80;99.90;;;;;;5457650;26;19994;-75
2024/04/21 11:32:10;;;;;;;0.20;0.00;;;12.60;99.90;;;;;;5489426;26;19998;-77
2024/04/21 11:34:39;;;;;;;;;;;12.70;99.90;;;;;;5490260;26;20147;-76
2024/04/21 11:37:18;;;;;;;0.10;0.00;;;12.90;99.90;;;;;;5518282;26;19956;-76
2024/04/21 11:39:44;;;;;;;0.40;0.00;;;13.40;99.90;;;;;;5489372;26;20069;-77
2024/04/21 11:42:09;;;;;;;0.00;0.00;;;13.30;99.70;;;;;;5489571;26;20009;-76
2024/04/21 11:44:35;;;;;;;0.00;0.00;;;13.30;99.90;;;;;;5489415;26;20008;-76
2024/04/21 11:47:01;;;;;;;1.58;0.30;;;13.10;99.90;;;;;;5489444;26;19998;-75
2024/04/21 11:49:27;;;;;;;3.25;0.38;;;13.00;99.90;;;;;;5457003;26;20002;-75
2024/04/21 11:51:52;;;;;;;0.68;0.00;;;13.10;99.90;;;;;;5489024;26;19998;-75
2024/04/21 11:54:18;;;;;;;2.08;0.00;;;13.10;99.90;;;;;;5456957;26;20006;-75
2024/04/21 11:56:43;;;;;;;2.85;0.00;;;12.80;99.90;;;;;;5489235;26;20065;-75
2024/04/21 11:59:09;;;;;;;0.35;0.22;;;12.70;99.90;;;;;;5488990;26;20006;-75
2024/04/21 12:01:34;;;;;;;0.82;0.00;;;12.90;99.90;;;;;;5489299;26;20005;-75
2024/04/21 12:04:00;;;;;;;0.13;0.00;;;13.00;99.90;;;;;;5488892;26;20009;-75
2024/04/21 12:06:26;;;;;;;0.88;0.00;;;12.80;99.90;;;;;;5489321;26;19999;-75
2024/04/21 12:08:51;;;;;;;0.00;0.00;;;12.90;99.90;;;;;;5456474;26;20013;-75
2024/04/21 12:11:17;;;;;;;0.28;0.00;;;13.10;99.80;;;;;;5489039;26;20005;-74
2024/04/21 12:13:43;;;;;;;1.75;0.17;;;13.50;99.60;;;;;;5456672;26;20001;-75
2024/04/21 12:16:08;;;;;;;0.30;0.00;;;13.80;99.90;;;;;;5457605;26;20009;-75
2024/04/21 12:18:34;;;;;;;2.53;0.08;;;14.00;99.90;;;;;;5460653;26;20438;-77
2024/04/21 12:21:01;;;;;;;0.15;0.00;;;14.00;97.90;;;;;;5460670;26;20005;-75
2024/04/21 12:23:26;;;;;;;0.10;0.00;;;14.00;98.10;;;;;;5493381;26;19994;-77
2024/04/21 12:25:52;;;;;;;0.28;0.10;;;14.40;99.90;;;;;;5493391;26;20063;-76
2024/04/21 12:28:17;;;;;;;1.05;0.00;;;14.80;98.60;;;;;;5492924;26;20026;-76
2024/04/21 12:30:43;;;;;;;0.57;0.30;;;14.80;97.80;;;;;;5460811;26;20336;-76
2024/04/21 12:33:09;;;;;;;0.52;0.10;;;14.70;97.60;;;;;;5460601;26;19990;-76
2024/04/21 12:35:37;;;;;;;0.57;0.00;;;14.70;98.00;;;;;;5460684;26;20019;-76
2024/04/21 12:38:04;;;;;;;0.00;0.00;;;;;;;;;;5492604;26;19994;-77
2024/04/21 12:40:33;;;;;;;0.08;0.00;;;15.90;97.90;;;;;;5521556;26;20006;-76
2024/04/21 12:42:59;;;;;;;2.38;0.00;;;16.00;95.50;;;;;;5493090;26;20376;-76
2024/04/21 12:45:25;;;;;;;0.80;0.17;;;15.30;94.30;;;;;;5460440;26;19990;-75
2024/04/21 12:47:52;;;;;;;0.13;0.00;;;15.30;94.70;;;;;;5492042;26;20413;-76
2024/04/21 12:50:18;;;;;;;5.00;0.63;;;15.70;96.40;;;;;;5460531;26;19998;-76